ADDS METAR Data INFO
IDs: Format: Raw Decoded Include TAF

Data at: 0213 UTC 14 Dec 2017

KNEW 140153Z 22008KT 10SM CLR 12/05 A3004 RMK AO2 SLP164 T01170050
KNEW 140053Z 21008KT 10SM CLR 12/04 A3004 RMK AO2 SLP164 T01220039
KNEW 132353Z 21008KT 10SM CLR 13/03 A3003 RMK AO2 SLP163 T01330028 10156 20133 55014
KNEW 132253Z 20008KT 10SM CLR 14/02 A3003 RMK AO2 SLP163 T01390017
KNEW 132153Z 21009KT 10SM CLR 16/02 A3005 RMK AO2 SLP169 T01560017
KNEW 132053Z 22010KT 10SM CLR 15/02 A3007 RMK AO2 SLP177 T01500017 56025
KNEW 131953Z 20010KT 10SM CLR 15/01 A3009 RMK AO2 SLP182 T01500011
KNEW 131853Z 24011KT 10SM CLR 15/01 A3012 RMK AO2 SLP193 T01500011
KNEW 131753Z 20006KT 10SM CLR 14/M01 A3015 RMK AO2 SLP202 T01441006 10144 20044 58014
KNEW 131653Z 19006KT 10SM CLR 13/00 A3018 RMK AO2 SLP212 T01330000
KNEW 131553Z 15006KT 10SM CLR 11/00 A3020 RMK AO2 SLP218 T01110000
KNEW 131453Z 15007KT 10SM CLR 09/02 A3019 RMK AO2 SLP215 T00940022 50003
KNEW 131353Z 17003KT 10SM CLR 06/01 A3019 RMK AO2 SLP216 T00610011
KNEW 131253Z 14003KT 10SM CLR 05/00 A3018 RMK AO2 SLP214 T00500000
KNEW 131153Z 14004KT 10SM CLR 06/02 A3018 RMK AO2 SLP212 T00560017 10100 20056 53003
KNEW 131053Z 07009KT 10SM CLR 08/02 A3016 RMK AO2 SLP207 T00780017
KNEW 130953Z 06010KT 10SM CLR 09/03 A3016 RMK AO2 SLP206 T00890028
KNEW 130853Z 05012KT 10SM CLR 09/02 A3017 RMK AO2 SLP209 T00940022 58002
KNEW 130753Z 03012KT 10SM CLR 09/02 A3018 RMK AO2 SLP211 T00940022
KNEW 130653Z 36011KT 10SM CLR 10/02 A3018 RMK AO2 SLP212 T01000017
KNEW 130553Z 35009KT 10SM CLR 10/04 A3018 RMK AO2 SLP211 T01000039 10128 20100 401610100 58003
KNEW 130453Z 35011KT 10SM CLR 11/03 A3019 RMK AO2 SLP217 T01060033
KNEW 130353Z 34013KT 10SM CLR 12/04 A3019 RMK AO2 SLP217 T01170044
KNEW 130253Z 32011KT 10SM CLR 12/06 A3019 RMK AO2 SLP214 T01170056 51013
KNEW 130153Z 33012KT 10SM CLR 12/06 A3018 RMK AO2 SLP212 T01220061
KNEW 130053Z 33009KT 10SM CLR 13/08 A3016 RMK AO2 SLP206 T01280078
KNEW 122353Z 34010KT 10SM CLR 13/08 A3015 RMK AO2 SLP202 T01280078 10156 20128 53007
KNEW 122253Z 32007KT 10SM CLR 13/08 A3013 RMK AO2 SLP196 T01330083
KNEW 122153Z 29007KT 6SM HZ CLR 14/08 A3013 RMK AO2 SLP195 T01390083
KNEW 122053Z 27009KT 10SM CLR 14/08 A3013 RMK AO2 SLP194 T01440083 55014
KNEW 121953Z 30007KT 10SM CLR 15/07 A3011 RMK AO2 SLP190 T01500072
KNEW 121853Z 32009KT 10SM CLR 15/07 A3014 RMK AO2 SLP200 T01500067
KNEW 121753Z 32009KT 10SM CLR 14/07 A3017 RMK AO2 SLP208 T01440072 10161 20117 58007
KNEW 121653Z 35010KT 10SM CLR 15/06 A3019 RMK AO2 SLP216 T01500056
KNEW 121553Z 35012KT 10SM CLR 14/05 A3020 RMK AO2 SLP218 T01390050
KNEW 121453Z 35014KT 10SM CLR 12/06 A3019 RMK AO2 SLP216 T01220061 51027